Time;durP1;ratioP1;P1;durP2;ratioP2;P2;SDS_P1;SDS_P2;PMS_P1;PMS_P2;Temp;Humidity;BMP_temperature;BMP_pressure;BME280_temperature;BME280_humidity;BME280_pressure;Samples;Min_cycle;Max_cycle;Signal;HPM_P1;HPM_P2
2022/05/09 00:01:49;;;;;;;4.53;4.10;;;17.70;83.70;;;;;;5038997;28;20329;-62
2022/05/09 00:04:15;;;;;;;6.18;4.25;;;17.70;83.80;;;;;;5038851;28;20104;-60
2022/05/09 00:06:40;;;;;;;6.63;4.47;;;17.60;84.00;;;;;;5040335;28;20045;-62
2022/05/09 00:09:06;;;;;;;5.97;4.38;;;17.70;84.10;;;;;;5039579;28;20045;-60
2022/05/09 00:11:32;;;;;;;4.65;4.25;;;17.60;84.00;;;;;;5041163;28;20041;-61
2022/05/09 00:13:58;;;;;;;4.93;4.53;;;17.60;84.20;;;;;;5042316;28;20029;-62
2022/05/09 00:16:23;;;;;;;8.70;4.57;;;17.60;84.20;;;;;;5024346;28;20044;-61
2022/05/09 00:18:49;;;;;;;4.82;4.32;;;17.60;84.30;;;;;;5040280;28;20067;-59
2022/05/09 00:21:15;;;;;;;5.30;4.40;;;17.60;84.40;;;;;;5038035;28;20130;-61
2022/05/09 00:23:40;;;;;;;4.82;4.40;;;17.50;84.40;;;;;;5041412;28;20041;-62
2022/05/09 00:26:07;;;;;;;7.57;4.60;;;17.50;84.50;;;;;;5041777;28;20060;-60
2022/05/09 00:28:33;;;;;;;4.97;4.47;;;17.50;84.50;;;;;;5039809;28;20501;-62
2022/05/09 00:30:59;;;;;;;4.97;4.57;;;17.40;84.70;;;;;;5040889;28;20124;-61
2022/05/09 00:33:24;;;;;;;4.75;4.35;;;17.40;84.90;;;;;;5038256;28;20048;-59
2022/05/09 00:35:50;;;;;;;4.88;4.38;;;17.40;84.90;;;;;;5037685;28;20127;-60
2022/05/09 00:38:16;;;;;;;4.85;4.45;;;17.40;84.90;;;;;;5022049;28;20036;-61
2022/05/09 00:41:28;;;;;;;4.97;4.47;;;17.40;85.10;;;;;;5039641;28;20420;-61
2022/05/09 00:43:32;;;;;;;4.60;4.20;;;17.40;85.20;;;;;;5040203;28;20058;-62
2022/05/09 00:45:58;;;;;;;4.88;4.47;;;17.40;85.20;;;;;;5023125;28;20132;-62
2022/05/09 00:48:23;;;;;;;4.82;4.35;;;17.30;85.20;;;;;;5039990;28;20464;-61
2022/05/09 00:50:49;;;;;;;5.38;4.88;;;17.40;85.40;;;;;;5035724;28;20403;-61
2022/05/09 00:53:14;;;;;;;5.82;4.90;;;17.30;85.30;;;;;;5020851;28;20083;-62
2022/05/09 00:55:44;;;;;;;6.30;4.47;;;17.30;85.40;;;;;;5025389;28;20066;-60
2022/05/09 00:58:12;;;;;;;13.50;5.40;;;17.30;85.40;;;;;;5022434;28;20033;-61
2022/05/09 01:00:38;;;;;;;6.13;4.70;;;17.20;85.50;;;;;;5040272;28;20037;-62
2022/05/09 01:03:10;;;;;;;5.47;4.97;;;17.20;85.60;;;;;;5023467;28;20082;-60
2022/05/09 01:05:37;;;;;;;5.57;4.63;;;17.20;85.70;;;;;;5024706;28;20040;-60
2022/05/09 01:08:03;;;;;;;5.10;4.70;;;17.20;85.70;;;;;;5038518;28;20034;-61
2022/05/09 01:10:31;;;;;;;6.57;4.70;;;17.20;85.80;;;;;;5042006;28;20421;-60
2022/05/09 01:13:00;;;;;;;4.95;4.50;;;17.20;85.80;;;;;;5021406;28;20032;-61
2022/05/09 01:15:26;;;;;;;5.38;4.57;;;17.20;85.80;;;;;;5037864;28;20057;-60
2022/05/09 01:17:52;;;;;;;5.88;4.35;;;17.20;85.90;;;;;;5023258;28;20033;-60
2022/05/09 01:20:17;;;;;;;5.57;4.57;;;17.10;86.10;;;;;;5041839;28;20384;-60
2022/05/09 01:22:43;;;;;;;6.38;4.82;;;17.10;85.90;;;;;;5038329;28;20043;-60
2022/05/09 01:25:11;;;;;;;6.90;4.90;;;17.10;86.00;;;;;;5038220;28;20071;-60
2022/05/09 01:27:40;;;;;;;5.22;4.80;;;17.10;86.00;;;;;;5040119;28;20029;-61
2022/05/09 01:30:15;;;;;;;4.97;4.55;;;17.10;86.00;;;;;;5018270;28;20276;-60
2022/05/09 01:32:49;;;;;;;5.53;5.05;;;17.10;86.10;;;;;;5039368;28;20033;-60
2022/05/09 01:35:15;;;;;;;5.50;4.95;;;17.10;86.10;;;;;;5040232;28;20071;-60
2022/05/09 01:37:42;;;;;;;6.00;4.80;;;17.10;86.10;;;;;;5040339;28;20053;-62
2022/05/09 01:40:08;;;;;;;5.07;4.63;;;17.10;86.20;;;;;;5037747;28;20420;-61
2022/05/09 01:42:35;;;;;;;7.05;4.55;;;17.10;86.20;;;;;;5040081;28;20069;-61
2022/05/09 01:45:01;;;;;;;5.35;4.88;;;17.10;86.30;;;;;;5038600;28;20029;-59
2022/05/09 01:50:10;;;;;;;8.05;5.15;;;17.10;86.40;;;;;;5040656;28;20035;-60
2022/05/09 01:52:36;;;;;;;5.43;4.72;;;17.00;86.40;;;;;;5037646;28;20049;-62
2022/05/09 01:55:02;;;;;;;5.68;5.18;;;17.10;86.60;;;;;;5036743;28;20045;-60
2022/05/09 01:57:27;;;;;;;5.10;4.68;;;17.00;86.40;;;;;;5021983;28;20048;-61
2022/05/09 01:59:53;;;;;;;4.95;4.55;;;17.00;86.40;;;;;;5038683;28;20028;-60
2022/05/09 02:02:20;;;;;;;5.90;5.40;;;17.00;86.40;;;;;;5039655;28;20072;-60
2022/05/09 02:04:46;;;;;;;5.85;5.30;;;17.10;86.40;;;;;;5036155;28;20511;-60
2022/05/09 02:07:14;;;;;;;5.13;4.63;;;17.10;86.60;;;;;;5002866;28;20052;-60
2022/05/09 02:09:41;;;;;;;7.10;5.28;;;17.00;86.60;;;;;;5037994;28;20037;-61
2022/05/09 02:12:07;;;;;;;6.68;5.00;;;17.00;86.50;;;;;;5037982;28;20037;-61
2022/05/09 02:14:32;;;;;;;5.97;4.80;;;17.00;86.60;;;;;;5038734;28;20056;-60
2022/05/09 02:16:58;;;;;;;5.22;4.82;;;17.00;86.60;;;;;;5036985;28;20048;-62
2022/05/09 02:19:24;;;;;;;7.55;5.28;;;17.00;86.60;;;;;;5036799;28;20029;-61
2022/05/09 02:21:50;;;;;;;5.88;5.28;;;17.00;86.70;;;;;;5036035;28;20172;-61
2022/05/09 02:24:15;;;;;;;5.35;4.85;;;16.90;86.70;;;;;;5035747;28;20164;-61
2022/05/09 02:26:41;;;;;;;8.52;5.22;;;16.90;86.80;;;;;;5040327;28;20094;-62
2022/05/09 02:29:06;;;;;;;5.22;4.72;;;17.00;86.90;;;;;;5041677;28;20099;-61
2022/05/09 02:31:34;;;;;;;5.70;4.95;;;16.90;86.90;;;;;;5040253;28;20606;-62
2022/05/09 02:34:01;;;;;;;6.65;4.65;;;16.90;86.80;;;;;;5038049;28;20500;-60
2022/05/09 02:36:27;;;;;;;5.55;5.07;;;16.90;86.80;;;;;;5040021;28;20089;-61
2022/05/09 02:38:52;;;;;;;5.03;4.60;;;16.90;86.90;;;;;;5037359;28;20029;-61
2022/05/09 02:41:18;;;;;;;5.65;5.15;;;16.90;87.00;;;;;;5036735;28;20282;-61
2022/05/09 02:43:43;;;;;;;5.55;5.07;;;16.90;86.90;;;;;;5035002;28;20032;-61
2022/05/09 02:46:09;;;;;;;5.13;4.68;;;16.90;86.90;;;;;;5037010;28;20037;-61
2022/05/09 02:48:37;;;;;;;6.03;5.43;;;16.90;86.90;;;;;;5037021;28;20036;-61
2022/05/09 02:51:04;;;;;;;6.05;5.38;;;16.90;87.00;;;;;;5038996;28;20104;-60
2022/05/09 02:53:30;;;;;;;5.53;5.03;;;16.90;87.00;;;;;;5023213;28;20025;-61
2022/05/09 02:55:55;;;;;;;5.82;5.25;;;16.90;87.10;;;;;;5037207;28;20437;-60
2022/05/09 02:58:21;;;;;;;5.72;5.22;;;16.90;87.10;;;;;;5020530;28;20513;-61
2022/05/09 03:00:46;;;;;;;5.50;5.00;;;16.90;87.20;;;;;;5018044;28;20094;-62
2022/05/09 03:05:56;;;;;;;5.57;5.07;;;16.80;87.20;;;;;;5042448;28;20115;-61
2022/05/09 03:08:23;;;;;;;5.07;4.68;;;16.80;87.20;;;;;;5042606;28;20033;-61
2022/05/09 03:10:48;;;;;;;5.10;4.70;;;16.80;87.30;;;;;;5041405;28;20500;-61
2022/05/09 03:13:14;;;;;;;5.22;4.70;;;16.80;87.30;;;;;;5041768;28;20056;-60
2022/05/09 03:15:44;;;;;;;5.82;5.38;;;16.80;87.40;;;;;;5042055;28;20052;-59
2022/05/09 03:18:10;;;;;;;5.78;5.25;;;16.80;87.20;;;;;;5042101;28;20060;-61
2022/05/09 03:20:36;;;;;;;5.30;4.82;;;16.80;87.30;;;;;;5041835;28;20140;-60
2022/05/09 03:23:04;;;;;;;5.43;4.93;;;16.80;87.50;;;;;;5010879;28;20051;-59
2022/05/09 03:25:30;;;;;;;5.43;4.90;;;16.80;87.40;;;;;;5040792;28;20342;-59
2022/05/09 03:27:56;;;;;;;6.22;5.63;;;16.80;87.50;;;;;;5037723;28;20041;-60
2022/05/09 03:30:21;;;;;;;6.18;5.68;;;16.80;87.50;;;;;;5040594;28;20129;-60
2022/05/09 03:32:47;;;;;;;5.90;5.40;;;16.80;87.50;;;;;;5044220;28;20045;-61
2022/05/09 03:35:14;;;;;;;5.47;4.93;;;16.80;87.60;;;;;;5040935;28;20117;-61
2022/05/09 03:37:40;;;;;;;5.85;5.35;;;16.80;87.60;;;;;;5023013;28;20453;-61
2022/05/09 03:40:06;;;;;;;5.85;5.35;;;16.80;87.60;;;;;;5025075;28;20026;-62
2022/05/09 03:42:32;;;;;;;5.80;5.30;;;16.80;87.60;;;;;;5041261;28;20460;-60
2022/05/09 03:44:57;;;;;;;6.65;5.80;;;16.80;87.80;;;;;;5043505;28;20075;-59
2022/05/09 03:47:23;;;;;;;6.22;5.63;;;16.80;87.80;;;;;;5040145;28;20321;-61
2022/05/09 03:49:50;;;;;;;5.63;5.13;;;16.80;87.90;;;;;;5016444;28;20136;-61
2022/05/09 03:52:16;;;;;;;5.60;5.03;;;16.80;87.90;;;;;;5040460;28;20425;-60
2022/05/09 03:54:42;;;;;;;5.85;5.35;;;16.70;87.90;;;;;;5024590;28;20256;-60
2022/05/09 03:57:07;;;;;;;6.35;5.20;;;16.80;87.90;;;;;;5041582;28;20033;-60
2022/05/09 03:59:33;;;;;;;5.82;5.32;;;16.80;88.00;;;;;;5040913;28;20033;-60
2022/05/09 04:01:58;;;;;;;6.25;5.50;;;16.70;87.90;;;;;;5008396;28;20032;-62
2022/05/09 04:04:24;;;;;;;5.82;5.32;;;16.80;88.10;;;;;;5041460;28;20041;-62
2022/05/09 04:06:51;;;;;;;5.90;5.40;;;16.70;88.00;;;;;;5042666;28;20112;-62
2022/05/09 04:09:17;;;;;;;6.20;5.47;;;16.70;88.10;;;;;;5009383;28;20033;-61
2022/05/09 04:11:42;;;;;;;5.97;5.38;;;16.70;88.10;;;;;;5041257;28;20031;-61
2022/05/09 04:14:08;;;;;;;6.38;5.50;;;16.70;88.20;;;;;;5042887;28;20135;-60
2022/05/09 04:16:49;;;;;;;5.70;5.30;;;16.70;88.10;;;;;;5024244;28;20049;-61
2022/05/09 04:19:15;;;;;;;6.07;5.57;;;16.70;88.10;;;;;;5038860;28;20094;-61
2022/05/09 04:21:40;;;;;;;6.13;5.55;;;16.70;88.10;;;;;;5037740;28;20025;-60
2022/05/09 04:24:06;;;;;;;6.07;5.47;;;16.70;88.10;;;;;;5039221;28;20116;-61
2022/05/09 04:26:31;;;;;;;5.78;5.28;;;16.80;88.20;;;;;;5007619;28;20029;-60
2022/05/09 04:28:58;;;;;;;6.03;5.40;;;16.70;88.20;;;;;;5022596;28;20124;-60
2022/05/09 04:31:23;;;;;;;6.75;5.97;;;16.70;88.20;;;;;;5038587;28;20065;-61
2022/05/09 04:33:49;;;;;;;9.20;5.72;;;16.70;88.30;;;;;;5023683;28;20149;-60
2022/05/09 04:36:15;;;;;;;8.27;5.90;;;16.60;88.20;;;;;;5024839;28;20038;-60
2022/05/09 04:38:41;;;;;;;14.30;6.50;;;16.70;88.30;;;;;;5014164;28;20047;-60
2022/05/09 04:41:08;;;;;;;28.02;8.27;;;16.70;88.30;;;;;;5024574;28;20089;-61
2022/05/09 04:43:34;;;;;;;36.30;7.03;;;16.70;88.40;;;;;;5039433;28;20140;-62
2022/05/09 04:46:00;;;;;;;21.27;7.00;;;16.70;88.40;;;;;;5038832;28;20501;-61
2022/05/09 04:48:26;;;;;;;21.02;7.10;;;16.70;88.40;;;;;;5022157;28;20167;-61
2022/05/09 04:50:51;;;;;;;17.80;6.93;;;16.70;88.40;;;;;;5043357;28;20112;-61
2022/05/09 04:53:17;;;;;;;23.48;7.40;;;16.70;88.50;;;;;;5040311;28;20555;-61
2022/05/09 04:55:43;;;;;;;11.63;7.15;;;16.70;88.40;;;;;;5035900;28;20517;-61
2022/05/09 04:58:14;;;;;;;28.80;7.18;;;16.70;88.60;;;;;;5041570;28;20418;-61
2022/05/09 05:00:39;;;;;;;26.85;7.35;;;16.70;88.60;;;;;;5008700;28;20053;-62
2022/05/09 05:03:05;;;;;;;27.63;7.70;;;16.70;88.60;;;;;;5023417;28;20025;-62
2022/05/09 05:05:31;;;;;;;13.98;6.55;;;16.70;88.50;;;;;;5039835;28;20037;-59
2022/05/09 05:07:56;;;;;;;16.10;6.35;;;16.70;88.60;;;;;;5038567;28;20052;-62
2022/05/09 05:10:22;;;;;;;16.75;6.63;;;16.70;88.60;;;;;;5008001;28;20116;-62
2022/05/09 05:12:47;;;;;;;11.00;6.60;;;16.70;88.60;;;;;;5035663;28;20424;-61
2022/05/09 05:15:13;;;;;;;12.13;6.80;;;16.70;88.60;;;;;;5006156;28;20029;-61
2022/05/09 05:17:39;;;;;;;17.38;6.30;;;16.70;88.60;;;;;;5038048;28;20040;-61
2022/05/09 05:20:09;;;;;;;14.07;6.43;;;16.70;88.50;;;;;;5039405;28;20407;-61
2022/05/09 05:22:38;;;;;;;17.70;6.50;;;16.70;88.50;;;;;;5038315;28;20037;-61
2022/05/09 05:25:04;;;;;;;13.85;6.82;;;16.70;88.60;;;;;;5041221;28;20033;-61
2022/05/09 05:27:30;;;;;;;13.85;6.85;;;16.70;88.60;;;;;;5041387;28;20032;-61
2022/05/09 05:29:57;;;;;;;14.95;6.38;;;16.70;88.60;;;;;;5035149;28;20345;-61
2022/05/09 05:32:27;;;;;;;11.20;6.25;;;16.70;89.30;;;;;;5024076;28;20032;-60
2022/05/09 05:34:53;;;;;;;9.13;6.20;;;16.70;88.70;;;;;;5038367;28;20037;-62
2022/05/09 05:37:18;;;;;;;14.68;6.88;;;16.70;88.70;;;;;;5040013;28;20342;-60
2022/05/09 05:39:45;;;;;;;9.82;6.60;;;16.70;88.80;;;;;;5038467;28;20033;-61
2022/05/09 05:42:11;;;;;;;11.80;6.65;;;16.70;89.00;;;;;;5038251;28;20421;-60
2022/05/09 05:44:39;;;;;;;12.68;6.75;;;16.70;88.90;;;;;;5024508;28;20025;-60
2022/05/09 05:47:06;;;;;;;7.82;6.45;;;16.70;88.90;;;;;;5037583;28;20306;-60
2022/05/09 05:49:33;;;;;;;9.02;6.60;;;16.70;88.90;;;;;;5036777;28;20052;-60
2022/05/09 05:52:02;;;;;;;8.30;6.65;;;16.70;88.80;;;;;;5038011;28;21521;-62
2022/05/09 05:54:28;;;;;;;13.13;6.82;;;17.00;89.00;;;;;;5036001;28;20056;-60
2022/05/09 05:56:53;;;;;;;10.68;7.13;;;16.60;88.80;;;;;;5038338;28;20033;-62
2022/05/09 05:59:19;;;;;;;13.90;6.70;;;16.70;88.80;;;;;;5036648;28;20037;-61
2022/05/09 06:01:44;;;;;;;8.35;7.40;;;16.70;88.80;;;;;;5035669;28;20492;-61
2022/05/09 06:04:10;;;;;;;8.25;7.45;;;16.70;88.80;;;;;;5038109;28;20469;-61
2022/05/09 06:06:35;;;;;;;8.27;7.47;;;16.60;88.80;;;;;;5036773;28;20423;-61
2022/05/09 06:09:01;;;;;;;10.35;7.70;;;16.60;89.30;;;;;;5034393;28;20081;-60
2022/05/09 06:11:27;;;;;;;15.43;8.77;;;16.60;89.60;;;;;;5038321;28;20094;-60
2022/05/09 06:13:52;;;;;;;8.40;7.65;;;16.50;90.00;;;;;;5038350;28;20439;-60
2022/05/09 06:16:18;;;;;;;9.48;8.02;;;16.40;90.10;;;;;;5034932;28;20057;-60
2022/05/09 06:18:45;;;;;;;9.13;8.23;;;16.40;90.20;;;;;;5030729;28;20536;-60
2022/05/09 06:21:11;;;;;;;8.63;7.70;;;16.40;90.30;;;;;;5036140;28;20885;-60
2022/05/09 06:23:37;;;;;;;11.80;8.63;;;16.40;90.40;;;;;;5036775;28;20036;-61
2022/05/09 06:26:02;;;;;;;9.50;8.50;;;16.30;90.50;;;;;;5031185;28;20040;-60
2022/05/09 06:28:28;;;;;;;9.18;8.25;;;16.30;90.50;;;;;;5033414;28;20105;-61
2022/05/09 06:30:53;;;;;;;9.45;8.50;;;16.30;90.60;;;;;;5030344;28;20048;-60
2022/05/09 06:33:23;;;;;;;11.02;8.45;;;16.30;90.70;;;;;;5020071;28;20036;-60
2022/05/09 06:35:48;;;;;;;9.55;8.75;;;16.30;90.90;;;;;;5037122;28;20051;-61
2022/05/09 06:38:15;;;;;;;9.55;8.65;;;16.30;90.70;;;;;;5035115;28;20029;-62
2022/05/09 06:40:40;;;;;;;9.93;8.35;;;16.30;90.70;;;;;;5029784;28;20616;-60
2022/05/09 06:43:07;;;;;;;10.25;8.88;;;16.30;90.70;;;;;;5003798;28;20064;-62
2022/05/09 06:45:32;;;;;;;21.08;9.50;;;16.30;90.90;;;;;;5035732;28;20155;-62
2022/05/09 06:47:58;;;;;;;9.45;8.55;;;16.30;91.20;;;;;;5021069;28;20041;-62
2022/05/09 06:50:26;;;;;;;11.45;8.73;;;16.30;90.90;;;;;;5031146;28;20065;-60
2022/05/09 06:52:51;;;;;;;11.13;9.10;;;16.30;91.00;;;;;;5034683;28;20036;-64
2022/05/09 06:55:17;;;;;;;10.85;9.32;;;16.40;91.00;;;;;;5036391;28;20500;-61
2022/05/09 06:57:43;;;;;;;10.63;9.68;;;16.40;91.00;;;;;;5038196;28;20033;-61
2022/05/09 07:00:14;;;;;;;12.88;9.60;;;16.40;91.10;;;;;;5020136;28;20025;-61
2022/05/09 07:02:40;;;;;;;10.98;9.82;;;16.40;91.10;;;;;;5034193;28;20048;-60
2022/05/09 07:05:07;;;;;;;13.10;9.98;;;16.40;91.10;;;;;;5035534;28;20025;-61
2022/05/09 07:07:33;;;;;;;10.32;9.23;;;16.40;91.10;;;;;;5013202;28;20499;-61
2022/05/09 07:09:58;;;;;;;10.30;9.30;;;16.40;91.20;;;;;;5031049;28;20028;-61
2022/05/09 07:12:24;;;;;;;10.13;9.13;;;16.40;91.20;;;;;;5031993;28;20108;-61
2022/05/09 07:14:50;;;;;;;11.23;9.95;;;16.50;91.20;;;;;;5030821;28;20053;-62
2022/05/09 07:17:15;;;;;;;16.80;9.93;;;16.50;91.40;;;;;;5029794;28;20109;-60
2022/05/09 07:19:41;;;;;;;10.68;9.68;;;16.50;91.40;;;;;;5030396;28;20045;-61
2022/05/09 07:22:06;;;;;;;10.88;9.68;;;16.50;91.50;;;;;;5033759;28;20029;-60
2022/05/09 07:24:32;;;;;;;11.57;10.40;;;16.50;91.40;;;;;;5029910;28;20025;-61
2022/05/09 07:26:57;;;;;;;12.80;9.68;;;16.50;91.40;;;;;;5031667;28;20029;-60
2022/05/09 07:29:23;;;;;;;11.30;9.85;;;16.60;91.30;;;;;;5030908;28;20388;-60
2022/05/09 07:31:48;;;;;;;15.70;10.20;;;16.60;91.30;;;;;;5031749;28;20053;-60
2022/05/09 07:34:14;;;;;;;26.15;11.05;;;16.60;91.30;;;;;;5032685;28;20041;-59
2022/05/09 07:36:40;;;;;;;13.32;10.18;;;16.60;91.30;;;;;;5029145;28;20047;-61
2022/05/09 07:39:05;;;;;;;17.50;10.25;;;16.70;91.20;;;;;;5031998;28;20354;-60
2022/05/09 07:41:31;;;;;;;10.95;9.82;;;16.80;91.10;;;;;;5035099;28;21394;-61
2022/05/09 07:43:57;;;;;;;14.85;10.25;;;16.80;91.00;;;;;;5014733;28;20021;-60
2022/05/09 07:46:23;;;;;;;21.25;9.85;;;16.80;90.90;;;;;;5016068;28;20051;-61
2022/05/09 07:48:49;;;;;;;21.67;10.27;;;16.90;90.80;;;;;;5032523;28;21274;-61
2022/05/09 07:51:15;;;;;;;17.38;9.88;;;17.10;90.80;;;;;;5020631;28;20025;-60
2022/05/09 07:53:41;;;;;;;20.48;10.35;;;17.00;90.70;;;;;;5028210;28;20079;-61
2022/05/09 07:56:07;;;;;;;22.38;9.85;;;17.00;90.80;;;;;;5035173;28;20033;-60
2022/05/09 07:58:33;;;;;;;20.13;9.95;;;17.00;90.90;;;;;;5019503;28;20064;-60
2022/05/09 08:00:59;;;;;;;14.35;10.35;;;17.00;90.80;;;;;;5032669;28;20033;-61
2022/05/09 08:03:25;;;;;;;31.42;11.25;;;17.10;90.80;;;;;;5036782;28;20083;-60
2022/05/09 08:05:51;;;;;;;28.70;11.07;;;17.10;90.70;;;;;;5035106;28;20043;-62
2022/05/09 08:08:16;;;;;;;27.05;11.65;;;17.10;90.60;;;;;;5006832;28;20033;-60
2022/05/09 08:10:42;;;;;;;30.00;11.00;;;17.10;90.50;;;;;;5011171;28;20749;-61
2022/05/09 08:13:08;;;;;;;21.67;9.50;;;17.10;90.40;;;;;;5014693;28;20364;-62
2022/05/09 08:15:34;;;;;;;23.70;9.63;;;17.20;90.30;;;;;;5011830;28;20059;-61
2022/05/09 08:18:01;;;;;;;18.77;11.02;;;17.20;90.50;;;;;;5031068;28;20328;-61
2022/05/09 08:20:27;;;;;;;27.38;10.98;;;17.20;90.60;;;;;;5035099;28;20112;-62
2022/05/09 08:23:00;;;;;;;27.92;9.98;;;17.20;90.60;;;;;;5006608;28;20088;-62
2022/05/09 08:25:26;;;;;;;65.57;14.20;;;17.20;90.50;;;;;;5026412;28;20491;-60
2022/05/09 08:27:51;;;;;;;38.15;12.90;;;17.30;90.70;;;;;;5038717;28;20032;-59
2022/05/09 08:30:18;;;;;;;35.03;11.90;;;17.30;90.70;;;;;;5025707;28;20485;-62
2022/05/09 08:32:43;;;;;;;23.48;10.60;;;17.30;90.80;;;;;;5038341;28;20036;-63
2022/05/09 08:35:09;;;;;;;28.02;11.60;;;17.30;90.60;;;;;;5032433;28;20025;-61
2022/05/09 08:37:35;;;;;;;38.42;11.98;;;17.30;90.60;;;;;;5032823;28;20127;-61
2022/05/09 08:40:01;;;;;;;31.85;11.50;;;17.40;90.70;;;;;;5033375;28;20046;-61
2022/05/09 08:42:47;;;;;;;31.60;11.75;;;17.40;90.60;;;;;;5029146;28;20034;-61
2022/05/09 08:45:32;;;;;;;24.48;10.88;;;17.40;90.40;;;;;;5017840;28;20465;-60
2022/05/09 08:48:07;;;;;;;26.83;10.73;;;17.40;90.30;;;;;;5023976;28;20052;-62
2022/05/09 08:50:54;;;;;;;27.23;10.65;;;17.50;90.40;;;;;;5026785;28;20529;-64
2022/05/09 08:53:24;;;;;;;31.13;11.60;;;17.50;90.40;;;;;;5025964;28;20040;-62
2022/05/09 08:55:51;;;;;;;26.45;10.70;;;17.50;90.20;;;;;;5014159;28;20025;-61
2022/05/09 08:58:22;;;;;;;36.10;10.82;;;17.60;90.10;;;;;;5032478;28;20036;-61
2022/05/09 09:00:49;;;;;;;52.42;11.07;;;17.60;90.00;;;;;;5031093;28;20037;-62
2022/05/09 09:03:37;;;;;;;29.35;10.45;;;17.60;89.80;;;;;;5010517;28;20206;-61
2022/05/09 09:06:23;;;;;;;25.73;10.73;;;17.70;89.50;;;;;;5033460;28;20141;-60
2022/05/09 09:08:58;;;;;;;23.20;9.98;;;17.60;89.40;;;;;;5017882;28;20106;-61
2022/05/09 09:11:39;;;;;;;23.80;9.73;;;17.70;89.30;;;;;;5031105;28;20033;-60
2022/05/09 09:14:23;;;;;;;35.65;11.32;;;17.80;89.20;;;;;;5033079;28;20048;-61
2022/05/09 09:17:24;;;;;;;50.47;11.23;;;17.90;89.10;;;;;;5025007;28;20136;-61
2022/05/09 09:20:08;;;;;;;38.80;10.10;;;17.90;88.60;;;;;;5033378;28;20772;-60
2022/05/09 09:23:14;;;;;;;31.27;9.45;;;18.00;88.30;;;;;;5028836;28;20082;-61
2022/05/09 09:26:02;;;;;;;47.35;11.23;;;18.00;88.10;;;;;;5009887;28;20046;-60
2022/05/09 09:28:34;;;;;;;45.17;10.57;;;18.10;87.80;;;;;;5017976;28;20071;-60
2022/05/09 09:31:00;;;;;;;60.78;12.77;;;18.10;87.70;;;;;;5027141;28;20044;-61
2022/05/09 09:33:25;;;;;;;42.17;10.65;;;18.10;87.80;;;;;;5011488;28;20076;-61
2022/05/09 09:35:54;;;;;;;42.53;12.20;;;18.20;87.50;;;;;;5027705;28;20512;-60
2022/05/09 09:38:40;;;;;;;35.55;9.75;;;18.20;87.40;;;;;;5022223;28;20148;-61
2022/05/09 09:41:35;;;;;;;28.63;9.98;;;18.20;86.80;;;;;;5029853;28;20029;-62
2022/05/09 09:44:29;;;;;;;32.08;10.10;;;18.30;86.20;;;;;;5015670;28;21121;-61
2022/05/09 09:47:17;;;;;;;34.03;9.80;;;18.30;86.20;;;;;;5022107;28;20025;-62
2022/05/09 09:49:43;;;;;;;68.70;12.85;;;18.40;86.00;;;;;;5032713;28;20089;-61
2022/05/09 09:52:45;;;;;;;54.03;11.15;;;18.40;85.90;;;;;;5013376;28;20051;-62
2022/05/09 09:55:32;;;;;;;52.47;10.68;;;18.40;85.70;;;;;;5029542;28;20038;-61
2022/05/09 09:57:59;;;;;;;41.30;10.75;;;18.50;85.30;;;;;;5028500;28;20032;-60
2022/05/09 10:00:28;;;;;;;41.00;9.85;;;18.50;85.00;;;;;;4999536;28;20144;-60
2022/05/09 10:02:54;;;;;;;52.28;10.63;;;18.60;84.90;;;;;;5027152;28;20585;-60
2022/05/09 10:05:41;;;;;;;55.03;10.75;;;18.60;84.70;;;;;;5028413;28;20034;-61
2022/05/09 10:08:29;;;;;;;71.00;12.38;;;18.60;84.50;;;;;;5025709;28;20112;-60
2022/05/09 10:11:08;;;;;;;61.92;11.23;;;18.70;84.20;;;;;;5026489;28;20050;-61
2022/05/09 10:13:41;;;;;;;51.15;10.55;;;18.70;83.90;;;;;;5006227;28;20602;-62
2022/05/09 10:16:11;;;;;;;41.13;9.73;;;18.70;83.70;;;;;;5026217;28;20105;-61
2022/05/09 10:18:36;;;;;;;48.85;9.90;;;18.80;83.70;;;;;;5011228;28;20160;-61
2022/05/09 10:26:54;;;;;;;45.70;11.23;;;18.90;83.50;;;;;;5026585;28;20787;-61
2022/05/09 10:29:21;;;;;;;60.88;12.20;;;18.90;83.50;;;;;;5028087;28;20033;-61
2022/05/09 10:31:53;;;;;;;70.82;11.07;;;18.90;83.30;;;;;;5010169;28;20021;-61
2022/05/09 10:34:20;;;;;;;32.45;9.13;;;19.00;83.10;;;;;;5024010;28;20071;-59
2022/05/09 10:36:57;;;;;;;35.50;9.57;;;19.00;82.80;;;;;;5013303;28;20076;-61
2022/05/09 10:39:26;;;;;;;32.03;8.93;;;19.00;82.40;;;;;;5032780;28;20109;-60
2022/05/09 10:42:00;;;;;;;40.67;10.23;;;19.10;82.90;;;;;;5036369;28;20029;-62
2022/05/09 10:44:39;;;;;;;73.90;13.18;;;19.10;82.40;;;;;;5030356;28;20035;-61
2022/05/09 10:47:15;;;;;;;56.47;11.80;;;19.20;82.40;;;;;;5025621;28;20651;-60
2022/05/09 10:49:59;;;;;;;35.85;8.35;;;19.00;82.00;;;;;;5031708;28;20052;-61
2022/05/09 10:52:28;;;;;;;29.48;8.13;;;19.20;81.30;;;;;;4998480;28;20104;-61
2022/05/09 10:54:56;;;;;;;29.33;7.97;;;19.20;81.40;;;;;;5030138;28;20528;-60
2022/05/09 10:57:42;;;;;;;26.80;8.13;;;19.20;81.60;;;;;;5036068;28;20425;-60
2022/05/09 11:00:11;;;;;;;43.35;9.40;;;19.30;81.00;;;;;;5013219;28;20082;-61
2022/05/09 11:02:39;;;;;;;44.85;9.68;;;19.30;81.00;;;;;;5028187;28;20041;-61
2022/05/09 11:05:05;;;;;;;48.30;10.98;;;19.30;80.80;;;;;;5028790;28;20029;-60
2022/05/09 11:08:00;;;;;;;58.65;11.88;;;19.40;80.80;;;;;;5025182;28;20581;-61
2022/05/09 11:10:33;;;;;;;44.47;9.27;;;19.40;80.90;;;;;;5029456;28;20164;-61
2022/05/09 11:13:25;;;;;;;54.05;11.60;;;19.40;80.90;;;;;;5013397;28;20538;-61
2022/05/09 11:16:12;;;;;;;66.10;10.80;;;19.50;81.00;;;;;;5029162;28;20049;-61
2022/05/09 11:18:50;;;;;;;52.45;11.10;;;19.50;80.30;;;;;;5009960;28;20057;-61
2022/05/09 11:21:28;;;;;;;44.33;9.32;;;19.60;80.40;;;;;;5030225;28;20024;-60
2022/05/09 11:24:05;;;;;;;51.78;9.63;;;19.60;80.00;;;;;;5021012;28;20029;-61
2022/05/09 11:26:50;;;;;;;35.90;7.75;;;19.70;79.50;;;;;;5032615;28;20076;-61
2022/05/09 11:29:35;;;;;;;16.45;7.03;;;19.70;79.10;;;;;;5031597;28;20040;-62
2022/05/09 11:32:23;;;;;;;31.40;8.13;;;19.80;78.60;;;;;;5034233;28;20033;-62
2022/05/09 11:35:12;;;;;;;24.05;6.93;;;19.80;78.60;;;;;;5037695;28;20334;-60
2022/05/09 11:37:53;;;;;;;29.83;7.70;;;19.90;78.30;;;;;;5033906;28;20044;-61
2022/05/09 11:40:28;;;;;;;22.30;6.70;;;19.90;77.70;;;;;;5034080;28;20056;-61
2022/05/09 11:46:12;;;;;;;14.27;6.05;;;20.00;77.00;;;;;;5035808;28;20044;-61
2022/05/09 11:49:00;;;;;;;44.35;9.20;;;20.00;76.70;;;;;;5031635;28;20564;-60
2022/05/09 11:51:45;;;;;;;20.20;6.85;;;20.20;76.30;;;;;;5033767;28;20381;-60
2022/05/09 11:54:32;;;;;;;20.80;6.43;;;20.30;75.80;;;;;;5030612;28;20347;-61
2022/05/09 11:57:03;;;;;;;20.75;6.60;;;20.40;75.60;;;;;;5039746;28;20067;-60
2022/05/09 11:59:31;;;;;;;28.95;7.32;;;20.40;75.10;;;;;;5021060;28;20028;-60
2022/05/09 12:02:06;;;;;;;35.88;6.80;;;20.50;75.20;;;;;;5021443;28;20108;-61
2022/05/09 12:04:41;;;;;;;31.05;7.07;;;20.50;75.10;;;;;;5036324;28;20055;-60
2022/05/09 12:07:26;;;;;;;26.83;7.13;;;20.50;75.00;;;;;;5019466;28;20053;-61
2022/05/09 12:09:58;;;;;;;19.08;5.93;;;20.50;74.80;;;;;;5023758;28;20200;-60
2022/05/09 12:12:41;;;;;;;18.05;5.85;;;20.60;74.90;;;;;;5034503;28;20054;-62
2022/05/09 12:15:07;;;;;;;39.53;8.52;;;20.60;74.60;;;;;;5035119;28;20029;-62
2022/05/09 12:17:36;;;;;;;28.92;7.18;;;20.60;74.30;;;;;;5035217;28;20037;-61
2022/05/09 12:20:26;;;;;;;39.58;7.90;;;20.70;74.00;;;;;;5029324;28;20186;-61
2022/05/09 12:22:53;;;;;;;30.33;6.57;;;20.80;74.00;;;;;;5029677;28;20048;-60
2022/05/09 12:25:38;;;;;;;18.75;6.25;;;20.90;73.40;;;;;;5032181;28;20029;-61
2022/05/09 12:28:26;;;;;;;35.17;7.32;;;21.00;73.10;;;;;;5034595;28;20032;-62
2022/05/09 12:31:00;;;;;;;29.25;6.80;;;21.10;72.60;;;;;;5033826;28;20044;-61
2022/05/09 12:33:33;;;;;;;40.67;7.23;;;21.10;72.20;;;;;;5012783;28;20053;-62
2022/05/09 12:36:21;;;;;;;31.67;7.43;;;21.30;72.30;;;;;;5010587;28;21248;-61
2022/05/09 12:38:51;;;;;;;24.40;6.93;;;21.20;72.00;;;;;;5030181;28;20524;-61
2022/05/09 12:41:22;;;;;;;41.72;8.38;;;21.30;71.70;;;;;;5017114;28;20031;-61
2022/05/09 12:43:52;;;;;;;47.20;7.35;;;21.30;71.50;;;;;;5030118;28;20052;-61
2022/05/09 12:46:26;;;;;;;67.35;12.00;;;21.40;71.60;;;;;;5033035;28;20694;-61
2022/05/09 12:48:52;;;;;;;68.65;9.73;;;21.50;71.40;;;;;;5029944;28;20623;-62
2022/05/09 12:51:17;;;;;;;25.98;6.20;;;21.50;71.30;;;;;;5028780;28;20044;-61
2022/05/09 12:53:43;;;;;;;23.85;6.25;;;21.60;70.50;;;;;;5029969;28;20029;-60
2022/05/09 12:56:14;;;;;;;24.23;5.57;;;21.70;70.50;;;;;;5016431;28;20072;-60
2022/05/09 12:58:42;;;;;;;14.88;5.43;;;21.80;70.20;;;;;;5011765;28;20052;-60
2022/05/09 13:01:17;;;;;;;17.15;5.50;;;21.90;70.20;;;;;;5029343;28;20067;-60
2022/05/09 13:03:44;;;;;;;;;;;21.90;69.90;;;;;;5031216;28;20036;-61
2022/05/09 13:06:11;;;;;;;20.17;5.85;;;22.00;69.60;;;;;;5028316;28;19928;-62